Time;durP1;ratioP1;P1;durP2;ratioP2;P2;SDS_P1;SDS_P2;PMS_P1;PMS_P2;Temp;Humidity;BMP_temperature;BMP_pressure;BME280_temperature;BME280_humidity;BME280_pressure;Samples;Min_cycle;Max_cycle;Signal;HPM_P1;HPM_P2
2023/05/18 00:00:05;;;;;;;13.35;8.07;;;;;;;;;;5044500;28;20040;-77
2023/05/18 00:02:39;;;;;;;15.57;7.72;;;;;;;;;;5059093;28;20341;-78
2023/05/18 00:05:09;;;;;;;8.52;7.60;;;;;;;;;;5070459;28;20044;-78
2023/05/18 00:07:39;;;;;;;14.00;8.32;;;;;;;;;;5071657;28;20032;-78
2023/05/18 00:10:15;;;;;;;9.35;7.75;;;;;;;;;;5089299;28;20081;-77
2023/05/18 00:12:47;;;;;;;8.68;7.88;;;;;;;;;;5067258;28;20036;-79
2023/05/18 00:15:20;;;;;;;14.38;8.10;;;;;;;;;;5075604;28;20028;-77
2023/05/18 00:17:52;;;;;;;17.95;9.07;;;;;;;;;;5081607;28;20554;-78
2023/05/18 00:20:20;;;;;;;12.05;8.85;;;;;;;;;;5085072;28;20083;-78
2023/05/18 00:22:53;;;;;;;14.98;8.57;;;;;;;;;;5081778;28;20522;-78
2023/05/18 00:25:22;;;;;;;18.08;8.63;;;;;;;;;;5091508;28;20040;-77
2023/05/18 00:27:55;;;;;;;14.88;8.55;;;;;;;;;;5074720;28;20032;-78
2023/05/18 00:30:25;;;;;;;13.75;9.07;;;;;;;;;;5074602;28;20070;-78
2023/05/18 00:32:59;;;;;;;15.15;8.85;;;;;;;;;;5083933;28;20036;-78
2023/05/18 00:35:28;;;;;;;11.75;8.68;;;;;;;;;;5091327;28;20032;-77
2023/05/18 00:37:59;;;;;;;10.27;8.57;;;;;;;;;;5073471;28;20603;-77
2023/05/18 00:40:29;;;;;;;17.10;11.38;;;;;;;;;;5074079;28;20151;-77
2023/05/18 00:43:00;;;;;;;17.35;11.15;;;;;;;;;;5057583;28;20028;-76
2023/05/18 00:45:28;;;;;;;13.23;9.10;;;;;;;;;;5073703;28;20071;-77
2023/05/18 00:47:58;;;;;;;;;;;;;;;;;;5075172;28;20111;-78
2023/05/18 00:50:31;;;;;;;17.45;10.60;;;;;;;;;;5074135;28;20022;-77
2023/05/18 00:53:01;;;;;;;10.38;8.98;;;;;;;;;;5057141;28;20086;-76
2023/05/18 00:55:29;;;;;;;17.05;10.32;;;;;;;;;;5086792;28;20040;-77
2023/05/18 00:57:57;;;;;;;15.95;11.98;;;;;;;;;;5082444;28;20060;-77
2023/05/18 01:00:29;;;;;;;21.13;11.88;;;;;;;;;;5088249;28;20036;-77
2023/05/18 01:03:05;;;;;;;;;;;;;;;;;;5092001;28;20028;-77
2023/05/18 01:05:34;;;;;;;15.15;12.40;;;;;;;;;;5073744;28;19912;-76
2023/05/18 01:08:04;;;;;;;25.08;12.35;;;;;;;;;;5053603;28;20038;-77
2023/05/18 01:10:36;;;;;;;13.13;10.95;;;;;;;;;;5058202;28;20455;-77
2023/05/18 01:13:23;;;;;;;22.05;11.15;;;;;;;;;;5093461;28;20078;-77
2023/05/18 01:15:51;;;;;;;12.75;10.57;;;;;;;;;;5075217;28;20115;-77
2023/05/18 01:18:27;;;;;;;23.13;11.70;;;;;;;;;;5071598;28;20044;-77
2023/05/18 01:21:03;;;;;;;31.73;14.07;;;;;;;;;;5036634;28;20040;-77
2023/05/18 01:23:51;;;;;;;26.40;13.18;;;;;;;;;;5041874;28;20139;-77
2023/05/18 01:26:36;;;;;;;20.10;13.48;;;;;;;;;;5054690;28;20031;-78
2023/05/18 01:29:05;;;;;;;27.02;13.60;;;;;;;;;;5054091;28;20036;-77
2023/05/18 01:31:36;;;;;;;24.02;14.45;;;;;;;;;;5056041;28;20039;-77
2023/05/18 01:34:06;;;;;;;26.00;13.98;;;;;;;;;;5090768;28;20035;-78
2023/05/18 01:36:38;;;;;;;29.30;13.80;;;;;;;;;;5072807;28;20069;-77
2023/05/18 01:39:14;;;;;;;26.77;12.05;;;;;;;;;;5066490;28;20063;-77
2023/05/18 01:41:46;;;;;;;16.23;12.43;;;;;;;;;;5070419;28;20036;-77
2023/05/18 01:44:16;;;;;;;14.68;12.18;;;;;;;;;;5052805;28;20039;-76
2023/05/18 01:46:53;;;;;;;16.30;11.85;;;;;;;;;;5033055;28;20037;-77
2023/05/18 01:49:46;;;;;;;14.15;11.00;;;;;;;;;;5036383;28;20478;-77
2023/05/18 01:52:15;;;;;;;14.13;10.57;;;;;;;;;;5042058;28;20048;-76
2023/05/18 01:54:48;;;;;;;11.00;10.00;;;;;;;;;;5019800;28;20032;-77
2023/05/18 01:57:18;;;;;;;11.75;9.98;;;;;;;;;;5035068;28;20040;-77
2023/05/18 01:59:49;;;;;;;16.13;10.93;;;;;;;;;;5032233;28;20052;-76
2023/05/18 02:02:20;;;;;;;15.38;10.38;;;;;;;;;;5034760;28;20067;-76
2023/05/18 02:04:48;;;;;;;12.25;10.48;;;;;;;;;;5052493;28;20131;-76
2023/05/18 02:07:16;;;;;;;14.07;10.00;;;;;;;;;;5069639;28;20072;-77
2023/05/18 02:09:44;;;;;;;16.65;10.13;;;;;;;;;;5052238;28;20504;-76
2023/05/18 02:12:15;;;;;;;11.88;10.68;;;;;;;;;;5039662;28;20044;-76
2023/05/18 02:14:46;;;;;;;10.32;9.32;;;;;;;;;;5051749;28;20028;-76
2023/05/18 02:17:16;;;;;;;17.80;10.48;;;;;;;;;;5051645;28;20039;-77
2023/05/18 02:19:53;;;;;;;12.35;10.27;;;;;;;;;;5033825;28;20045;-77
2023/05/18 02:22:23;;;;;;;15.00;10.43;;;;;;;;;;5049321;28;20040;-76
2023/05/18 02:24:54;;;;;;;10.68;9.60;;;;;;;;;;5067323;28;20060;-75
2023/05/18 02:27:25;;;;;;;15.10;10.80;;;;;;;;;;5051426;28;20078;-77
2023/05/18 02:29:53;;;;;;;19.38;10.93;;;;;;;;;;5031594;28;20131;-77
2023/05/18 02:32:24;;;;;;;15.63;10.80;;;;;;;;;;5062336;28;20036;-76
2023/05/18 02:34:52;;;;;;;13.80;10.13;;;;;;;;;;5052023;28;20029;-77
2023/05/18 02:37:21;;;;;;;16.67;11.00;;;;;;;;;;5070245;28;20048;-78
2023/05/18 02:39:49;;;;;;;21.80;11.80;;;;;;;;;;5032708;28;20058;-76
2023/05/18 02:42:17;;;;;;;21.17;12.07;;;;;;;;;;5073663;28;20560;-77
2023/05/18 02:44:47;;;;;;;19.52;12.25;;;;;;;;;;5038388;28;20111;-77
2023/05/18 02:47:15;;;;;;;;;;;;;;;;;;5038659;28;20032;-78
2023/05/18 02:49:45;;;;;;;17.13;12.23;;;;;;;;;;5094053;28;20002;-76
2023/05/18 02:52:15;;;;;;;17.13;11.55;;;;;;;;;;5090158;28;20282;-76
2023/05/18 02:54:46;;;;;;;25.33;12.38;;;;;;;;;;5050863;28;20051;-76
2023/05/18 02:57:22;;;;;;;17.25;11.68;;;;;;;;;;5067990;28;20032;-75
2023/05/18 03:00:01;;;;;;;18.95;11.02;;;;;;;;;;5050014;28;20098;-77
2023/05/18 03:02:37;;;;;;;17.75;12.40;;;;;;;;;;5054183;28;20209;-75
2023/05/18 03:05:05;;;;;;;17.08;13.15;;;;;;;;;;5071663;28;20046;-78
2023/05/18 03:07:36;;;;;;;15.85;12.73;;;;;;;;;;5070228;28;20060;-76
2023/05/18 03:10:06;;;;;;;23.92;12.98;;;;;;;;;;5051803;28;20047;-75
2023/05/18 03:12:39;;;;;;;17.40;13.65;;;;;;;;;;5080096;28;20078;-76
2023/05/18 03:15:12;;;;;;;26.65;14.52;;;;;;;;;;5077623;28;20040;-78
2023/05/18 03:17:40;;;;;;;32.05;16.17;;;;;;;;;;5036510;28;20039;-77
2023/05/18 03:20:13;;;;;;;23.25;15.02;;;;;;;;;;5070078;28;20047;-77
2023/05/18 03:22:47;;;;;;;21.73;14.07;;;;;;;;;;5050431;28;20397;-77
2023/05/18 03:25:27;;;;;;;20.02;14.05;;;;;;;;;;5035756;28;20040;-77
2023/05/18 03:28:01;;;;;;;21.17;12.77;;;;;;;;;;5088607;28;20020;-76
2023/05/18 03:30:34;;;;;;;14.77;10.32;;;;;;;;;;5067996;28;20090;-77
2023/05/18 03:33:11;;;;;;;11.25;10.10;;;;;;;;;;5043263;28;20044;-78
2023/05/18 03:35:41;;;;;;;;;;;;;;;;;;5076844;28;20516;-76
2023/05/18 03:38:11;;;;;;;10.52;8.85;;;;;;;;;;5080641;28;19943;-78
2023/05/18 03:40:46;;;;;;;15.50;9.52;;;;;;;;;;5051533;28;20154;-77
2023/05/18 03:43:15;;;;;;;19.80;10.75;;;;;;;;;;5066365;28;20028;-76
2023/05/18 03:45:42;;;;;;;15.70;9.10;;;;;;;;;;5070839;28;20043;-76
2023/05/18 03:48:08;;;;;;;10.23;8.07;;;;;;;;;;5088690;28;20653;-75
2023/05/18 03:50:38;;;;;;;12.93;7.43;;;;;;;;;;5054426;28;20119;-77
2023/05/18 03:53:08;;;;;;;12.60;7.38;;;;;;;;;;5042203;28;20085;-78
2023/05/18 03:55:35;;;;;;;11.88;7.97;;;;;;;;;;5052383;28;20028;-78
2023/05/18 03:58:02;;;;;;;12.80;8.30;;;;;;;;;;5078731;28;20111;-77
2023/05/18 04:00:29;;;;;;;8.50;7.63;;;;;;;;;;5069804;28;20036;-78
2023/05/18 04:03:05;;;;;;;9.25;7.32;;;;;;;;;;5058905;28;20031;-79
2023/05/18 04:05:32;;;;;;;17.15;9.32;;;;;;;;;;5059585;28;20062;-80
2023/05/18 04:08:29;;;;;;;15.32;8.45;;;;;;;;;;5072863;28;20039;-78
2023/05/18 04:10:56;;;;;;;11.43;8.73;;;;;;;;;;5067977;28;20070;-78
2023/05/18 04:13:26;;;;;;;14.60;9.38;;;;;;;;;;5083426;28;20035;-78
2023/05/18 04:15:53;;;;;;;;;;;;;;;;;;5073074;28;20039;-79
2023/05/18 04:19:02;;;;;;;17.75;10.02;;;;;;;;;;5083211;28;19924;-79
2023/05/18 04:21:37;;;;;;;17.60;9.10;;;;;;;;;;5052617;28;20127;-78
2023/05/18 04:24:13;;;;;;;20.00;9.05;;;;;;;;;;5057311;28;20031;-79
2023/05/18 04:26:45;;;;;;;12.27;8.27;;;;;;;;;;5056236;28;20048;-79
2023/05/18 04:29:26;;;;;;;11.95;8.35;;;;;;;;;;5048686;28;20249;-79
2023/05/18 04:31:59;;;;;;;10.80;7.82;;;;;;;;;;5039380;28;20055;-77
2023/05/18 04:34:36;;;;;;;14.02;8.65;;;;;;;;;;5057866;28;20052;-78
2023/05/18 04:37:04;;;;;;;14.00;8.05;;;;;;;;;;5071630;28;20044;-78
2023/05/18 04:39:34;;;;;;;17.02;8.02;;;;;;;;;;5064956;28;20063;-75
2023/05/18 04:42:10;;;;;;;13.75;8.25;;;;;;;;;;5059571;28;20443;-77
2023/05/18 04:44:37;;;;;;;15.57;7.43;;;;;;;;;;5098516;28;20063;-77
2023/05/18 04:47:07;;;;;;;9.80;7.07;;;;;;;;;;5078613;28;20035;-74
2023/05/18 04:49:34;;;;;;;14.35;7.57;;;;;;;;;;5078323;28;20070;-74
2023/05/18 04:52:01;;;;;;;10.15;7.30;;;;;;;;;;5094499;28;20036;-74
2023/05/18 04:54:31;;;;;;;10.65;7.78;;;;;;;;;;5059230;28;20389;-75
2023/05/18 04:57:02;;;;;;;11.95;6.85;;;;;;;;;;5050971;28;20149;-76
2023/05/18 04:59:28;;;;;;;15.35;7.32;;;;;;;;;;5055290;28;20063;-76
2023/05/18 05:01:55;;;;;;;12.43;6.43;;;;;;;;;;5059966;28;20032;-76
2023/05/18 05:04:22;;;;;;;8.35;6.57;;;;;;;;;;5058210;28;20066;-75
2023/05/18 05:06:49;;;;;;;19.05;7.07;;;;;;;;;;5074878;28;20043;-75
2023/05/18 05:09:15;;;;;;;7.90;6.53;;;;;;;;;;5073735;28;20044;-75
2023/05/18 05:11:41;;;;;;;6.85;6.25;;;;;;;;;;5072402;28;20087;-74
2023/05/18 05:14:07;;;;;;;9.85;6.50;;;;;;;;;;5073270;28;20032;-74
2023/05/18 05:16:34;;;;;;;8.60;6.38;;;;;;;;;;5091358;28;20044;-74
2023/05/18 05:19:00;;;;;;;7.07;6.25;;;;;;;;;;5056982;28;20032;-74
2023/05/18 05:21:27;;;;;;;6.93;5.82;;;;;;;;;;5073241;28;20047;-74
2023/05/18 05:23:53;;;;;;;7.75;5.75;;;;;;;;;;5022590;28;20035;-75
2023/05/18 05:26:20;;;;;;;7.78;6.00;;;;;;;;;;5072918;28;20043;-73
2023/05/18 05:28:46;;;;;;;8.50;6.22;;;;;;;;;;5072769;28;20033;-74
2023/05/18 05:31:13;;;;;;;7.70;6.38;;;;;;;;;;5056521;28;20043;-74
2023/05/18 05:33:39;;;;;;;9.23;5.45;;;;;;;;;;5072848;28;20044;-74
2023/05/18 05:36:07;;;;;;;12.90;5.60;;;;;;;;;;5091008;28;20024;-75
2023/05/18 05:38:34;;;;;;;10.45;5.82;;;;;;;;;;5072585;28;20040;-72
2023/05/18 05:41:03;;;;;;;8.70;5.45;;;;;;;;;;5053911;28;20554;-72
2023/05/18 05:43:30;;;;;;;11.57;5.28;;;;;;;;;;5088068;28;20042;-72
2023/05/18 05:45:56;;;;;;;9.38;5.30;;;;;;;;;;5073370;28;20032;-74
2023/05/18 05:48:23;;;;;;;5.88;5.13;;;;;;;;;;5072310;28;20032;-73
2023/05/18 05:50:50;;;;;;;8.25;5.00;;;;;;;;;;5091281;28;20056;-74
2023/05/18 05:53:18;;;;;;;10.63;4.50;;;;;;;;;;5038964;28;20031;-72
2023/05/18 05:55:47;;;;;;;10.80;4.97;;;;;;;;;;5068938;28;20135;-74
2023/05/18 05:58:15;;;;;;;7.30;4.40;;;;;;;;;;5052090;28;20028;-74
2023/05/18 06:00:51;;;;;;;5.45;5.05;;;;;;;;;;5068777;28;20067;-74
2023/05/18 06:03:21;;;;;;;12.82;5.15;;;;;;;;;;5032814;28;20032;-74
2023/05/18 06:05:59;;;;;;;13.77;5.13;;;;;;;;;;5067688;28;20064;-73
2023/05/18 06:08:29;;;;;;;8.82;4.53;;;;;;;;;;5046547;28;20110;-73
2023/05/18 06:10:59;;;;;;;5.20;4.80;;;;;;;;;;5071170;28;20043;-73
2023/05/18 06:13:26;;;;;;;8.02;4.97;;;;;;;;;;5037583;28;20028;-74
2023/05/18 06:15:57;;;;;;;5.50;4.60;;;;;;;;;;5072143;28;20031;-74
2023/05/18 06:18:24;;;;;;;4.93;4.50;;;;;;;;;;5053982;28;20036;-74
2023/05/18 06:20:56;;;;;;;7.82;4.75;;;;;;;;;;5071105;28;20355;-74
2023/05/18 06:23:25;;;;;;;7.43;4.90;;;;;;;;;;5053911;28;20488;-74
2023/05/18 06:26:01;;;;;;;14.23;4.97;;;;;;;;;;5071916;28;20532;-74
2023/05/18 06:28:54;;;;;;;7.60;4.40;;;;;;;;;;5072251;28;20507;-74
2023/05/18 06:31:35;;;;;;;6.05;4.78;;;;;;;;;;5055976;28;20519;-75
2023/05/18 06:34:13;;;;;;;4.13;3.83;;;;;;;;;;5068567;28;20044;-75
2023/05/18 06:36:40;;;;;;;4.75;4.00;;;;;;;;;;5055073;28;20158;-75
2023/05/18 10:06:26;;;;;;;4.93;4.40;;;;;;;;;;5064710;28;20548;-75
2023/05/18 10:08:55;;;;;;;4.63;4.32;;;;;;;;;;5070236;28;20076;-74
2023/05/18 10:11:26;;;;;;;5.47;3.90;;;;;;;;;;5066409;28;20524;-75
2023/05/18 10:13:58;;;;;;;4.15;3.75;;;;;;;;;;5085499;28;20110;-74
2023/05/18 10:16:28;;;;;;;4.43;4.03;;;;;;;;;;5056831;28;20040;-75
2023/05/18 10:18:55;;;;;;;6.00;4.00;;;;;;;;;;5072573;28;20126;-75
2023/05/18 10:21:22;;;;;;;4.55;4.22;;;;;;;;;;5072563;28;20039;-76
2023/05/18 10:23:51;;;;;;;6.50;4.15;;;;;;;;;;5069540;28;20135;-74
2023/05/18 10:26:22;;;;;;;5.28;4.00;;;;;;;;;;5054115;28;20039;-76
2023/05/18 10:28:48;;;;;;;4.30;4.00;;;;;;;;;;5091343;28;20040;-73
2023/05/18 10:31:15;;;;;;;4.82;3.80;;;;;;;;;;5091666;28;20071;-74
2023/05/18 10:33:41;;;;;;;5.03;4.00;;;;;;;;;;5068751;28;20500;-73
2023/05/18 10:36:07;;;;;;;4.43;3.80;;;;;;;;;;5051809;28;20089;-73
2023/05/18 10:38:35;;;;;;;4.75;4.30;;;;;;;;;;5069398;28;20037;-74
2023/05/18 10:41:05;;;;;;;6.30;4.40;;;;;;;;;;5054444;28;20036;-74
2023/05/18 10:43:35;;;;;;;4.70;4.20;;;;;;;;;;5057031;28;20067;-74
2023/05/18 10:46:02;;;;;;;9.02;4.40;;;;;;;;;;5066588;28;20040;-73
2023/05/18 10:48:29;;;;;;;5.28;3.97;;;;;;;;;;5074097;28;20090;-74
2023/05/18 10:50:56;;;;;;;5.82;3.97;;;;;;;;;;5050049;28;20101;-75
2023/05/18 10:53:35;;;;;;;6.38;4.10;;;;;;;;;;5037717;28;20338;-75
2023/05/18 10:56:01;;;;;;;4.50;4.10;;;;;;;;;;5054774;28;20051;-76
2023/05/18 10:58:30;;;;;;;4.30;3.97;;;;;;;;;;5069458;28;20071;-75
2023/05/18 11:01:00;;;;;;;5.30;4.05;;;;;;;;;;5075819;28;20055;-74
2023/05/18 11:03:26;;;;;;;4.03;3.80;;;;;;;;;;5039299;28;20039;-74
2023/05/18 11:06:06;;;;;;;4.68;4.20;;;;;;;;;;5094668;28;20103;-74
2023/05/18 11:08:35;;;;;;;4.25;3.95;;;;;;;;;;5085029;28;20077;-75
2023/05/18 11:11:07;;;;;;;5.35;3.97;;;;;;;;;;5075287;28;20497;-74
2023/05/18 11:13:34;;;;;;;5.10;4.05;;;;;;;;;;5106925;28;20059;-75
2023/05/18 11:16:04;;;;;;;4.80;4.03;;;;;;;;;;5110172;28;20199;-74
2023/05/18 11:18:38;;;;;;;6.28;4.22;;;;;;;;;;5113605;28;20495;-75
2023/05/18 11:21:19;;;;;;;4.32;4.03;;;;;;;;;;5096140;28;20027;-74
2023/05/18 11:24:05;;;;;;;4.00;3.70;;;;;;;;;;5093318;28;20072;-76
2023/05/18 11:26:39;;;;;;;7.13;5.07;;;;;;;;;;5105587;28;20052;-73
2023/05/18 11:29:19;;;;;;;5.25;4.85;;;;;;;;;;5099551;28;20055;-74
2023/05/18 11:31:51;;;;;;;7.80;4.60;;;;;;;;;;5098062;28;20040;-73
2023/05/18 11:34:49;;;;;;;6.45;5.05;;;;;;;;;;5099000;28;20113;-74
2023/05/18 11:37:17;;;;;;;5.82;5.20;;;;;;;;;;5090294;28;20097;-73
2023/05/18 11:40:01;;;;;;;5.22;4.68;;;;;;;;;;5097682;28;20040;-74
2023/05/18 11:42:42;;;;;;;5.10;4.50;;;;;;;;;;5097758;28;20024;-74
2023/05/18 11:45:10;;;;;;;4.68;4.38;;;;;;;;;;5079943;28;20036;-74
2023/05/18 11:47:40;;;;;;;6.30;4.95;;;;;;;;;;5089263;28;20045;-74
2023/05/18 11:50:10;;;;;;;5.18;4.78;;;;;;;;;;5099853;28;20047;-74
2023/05/18 11:53:13;;;;;;;9.93;5.05;;;;;;;;;;5078029;28;20040;-74
2023/05/18 11:55:45;;;;;;;6.05;5.65;;;;;;;;;;5048193;28;20054;-74
2023/05/18 11:58:19;;;;;;;6.85;6.10;;;;;;;;;;5097613;28;20040;-74
2023/05/18 12:00:51;;;;;;;8.05;6.07;;;;;;;;;;5083190;28;20032;-74
2023/05/18 12:03:24;;;;;;;8.93;4.97;;;;;;;;;;5081163;28;20135;-74
2023/05/18 12:05:58;;;;;;;11.23;5.25;;;;;;;;;;5078901;28;20786;-75
2023/05/18 12:08:28;;;;;;;12.00;5.10;;;;;;;;;;5083395;28;20036;-75
2023/05/18 12:10:56;;;;;;;9.45;4.70;;;;;;;;;;5080440;28;20055;-75
2023/05/18 12:13:21;;;;;;;5.05;4.65;;;;;;;;;;5061919;28;20501;-75
2023/05/18 12:15:47;;;;;;;5.10;4.70;;;;;;;;;;5097772;28;20043;-76
2023/05/18 12:18:13;;;;;;;5.80;4.70;;;;;;;;;;5079517;28;20055;-75
2023/05/18 12:20:39;;;;;;;4.93;4.43;;;;;;;;;;5099266;28;20032;-76
2023/05/18 12:23:05;;;;;;;4.82;4.43;;;;;;;;;;5101663;28;20114;-74
2023/05/18 12:25:31;;;;;;;9.65;4.35;;;;;;;;;;5086053;28;20156;-74
2023/05/18 12:27:57;;;;;;;6.55;4.50;;;;;;;;;;5100633;28;20388;-75
2023/05/18 12:30:23;;;;;;;5.75;4.57;;;;;;;;;;5108418;28;20062;-75
2023/05/18 12:32:50;;;;;;;4.60;4.22;;;;;;;;;;5107387;28;20530;-75
2023/05/18 12:35:16;;;;;;;4.00;3.53;;;;;;;;;;5105353;28;20051;-75
2023/05/18 12:37:43;;;;;;;5.65;4.00;;;;;;;;;;5091791;28;20458;-75
2023/05/18 12:40:09;;;;;;;6.65;3.80;;;;;;;;;;5103212;28;20086;-74
2023/05/18 12:42:35;;;;;;;4.85;4.18;;;;;;;;;;5101131;28;20518;-75
2023/05/18 12:45:01;;;;;;;4.72;3.40;;;;;;;;;;5103476;28;20048;-74
2023/05/18 12:47:28;;;;;;;5.85;3.78;;;;;;;;;;5103796;28;20032;-76
2023/05/18 12:49:53;;;;;;;4.55;4.13;;;;;;;;;;5067063;28;20048;-74
2023/05/18 12:52:20;;;;;;;4.70;3.95;;;;;;;;;;5101668;28;20050;-75
2023/05/18 12:54:58;;;;;;;4.15;3.85;;;;;;;;;;5101076;28;20554;-75
2023/05/18 12:57:25;;;;;;;4.97;3.78;;;;;;;;;;5079894;28;20620;-75
2023/05/18 12:59:52;;;;;;;5.95;4.15;;;;;;;;;;5101351;28;20061;-75
2023/05/18 13:02:36;;;;;;;5.43;3.78;;;;;;;;;;5090078;28;20066;-74
2023/05/18 13:05:07;;;;;;;4.82;3.67;;;;;;;;;;5103150;28;20048;-75
2023/05/18 13:07:36;;;;;;;4.88;3.70;;;;;;;;;;5098180;28;20032;-75
2023/05/18 13:10:06;;;;;;;4.35;3.90;;;;;;;;;;5101216;28;20059;-74
2023/05/18 13:12:40;;;;;;;9.77;3.90;;;;;;;;;;5091932;28;20040;-75
2023/05/18 13:15:10;;;;;;;4.30;3.90;;;;;;;;;;5100893;28;20047;-74
2023/05/18 13:17:36;;;;;;;4.88;4.15;;;;;;;;;;5080666;28;20519;-74
2023/05/18 13:20:03;;;;;;;6.90;4.35;;;;;;;;;;5102211;28;20040;-76
2023/05/18 13:22:29;;;;;;;4.57;4.18;;;;;;;;;;5062941;28;20032;-76
2023/05/18 13:24:55;;;;;;;3.70;3.40;;;;;;;;;;5103256;28;20041;-74
2023/05/18 13:27:20;;;;;;;6.03;4.25;;;;;;;;;;5099806;28;20139;-74
2023/05/18 13:29:46;;;;;;;6.90;4.18;;;;;;;;;;5081881;28;20093;-75
2023/05/18 13:32:12;;;;;;;4.32;4.03;;;;;;;;;;5106811;28;20125;-75
2023/05/18 13:34:38;;;;;;;8.52;3.90;;;;;;;;;;5106132;28;20031;-74
2023/05/18 13:37:04;;;;;;;4.28;3.95;;;;;;;;;;5098523;28;20043;-75
2023/05/18 13:39:30;;;;;;;4.55;4.22;;;;;;;;;;5107456;28;20097;-74
2023/05/18 13:41:56;;;;;;;8.13;3.85;;;;;;;;;;5079620;28;20047;-72
2023/05/18 13:44:22;;;;;;;4.10;3.80;;;;;;;;;;5087806;28;20070;-73
2023/05/18 13:46:48;;;;;;;4.13;3.80;;;;;;;;;;5111459;28;20047;-73
2023/05/18 13:49:14;;;;;;;4.60;4.15;;;;;;;;;;5076572;28;20051;-73
2023/05/18 13:51:42;;;;;;;5.30;3.90;;;;;;;;;;5091086;28;20052;-74
2023/05/18 13:54:12;;;;;;;4.78;4.40;;;;;;;;;;5091713;28;20124;-73
2023/05/18 13:56:37;;;;;;;7.03;3.92;;;;;;;;;;5056674;28;20052;-73
2023/05/18 13:59:03;;;;;;;4.20;3.83;;;;;;;;;;5091578;28;20561;-73
2023/05/18 14:01:31;;;;;;;5.07;4.68;;;;;;;;;;5073425;28;20137;-73
2023/05/18 14:03:57;;;;;;;5.53;4.53;;;;;;;;;;5100260;28;20032;-75
2023/05/18 14:06:23;;;;;;;6.30;4.18;;;;;;;;;;5088260;28;20099;-74
2023/05/18 14:08:49;;;;;;;5.35;3.83;;;;;;;;;;5072170;28;20036;-73
2023/05/18 14:11:15;;;;;;;6.03;4.18;;;;;;;;;;5104160;28;20104;-73
2023/05/18 14:13:41;;;;;;;5.60;4.00;;;;;;;;;;5111785;28;20126;-74
2023/05/18 14:16:06;;;;;;;5.97;4.00;;;;;;;;;;5089520;28;20521;-74
2023/05/18 14:18:32;;;;;;;8.32;3.60;;;;;;;;;;5102999;28;20050;-73
2023/05/18 14:21:00;;;;;;;4.43;4.00;;;;;;;;;;5108211;28;20094;-74
2023/05/18 14:23:27;;;;;;;4.05;3.75;;;;;;;;;;5092940;28;20054;-74
2023/05/18 14:25:53;;;;;;;6.78;3.58;;;;;;;;;;5081169;28;20051;-74
2023/05/18 14:28:19;;;;;;;4.03;3.70;;;;;;;;;;5096456;28;20474;-74
2023/05/18 14:30:45;;;;;;;4.15;3.80;;;;;;;;;;5092560;28;20059;-73
2023/05/18 14:33:10;;;;;;;10.82;3.70;;;;;;;;;;5108889;28;20058;-74
2023/05/18 14:35:36;;;;;;;3.85;3.50;;;;;;;;;;5107442;28;20035;-72
2023/05/18 14:38:02;;;;;;;7.88;4.13;;;;;;;;;;5084065;28;20503;-73
2023/05/18 14:40:29;;;;;;;5.00;3.72;;;;;;;;;;5091822;28;20113;-73
2023/05/18 14:42:55;;;;;;;3.85;3.30;;;;;;;;;;5073051;28;20036;-73
2023/05/18 14:45:24;;;;;;;5.80;3.90;;;;;;;;;;5058126;28;20043;-73
2023/05/18 14:47:51;;;;;;;6.05;3.75;;;;;;;;;;5088417;28;20063;-73
2023/05/18 14:50:20;;;;;;;4.22;3.72;;;;;;;;;;5103001;28;20475;-73
2023/05/18 14:52:53;;;;;;;5.70;3.75;;;;;;;;;;5092792;28;20063;-74
2023/05/18 14:55:19;;;;;;;7.43;4.20;;;;;;;;;;5090481;28;20043;-75
2023/05/18 14:57:45;;;;;;;11.13;3.88;;;;;;;;;;5109231;28;20040;-75
2023/05/18 15:00:11;;;;;;;5.45;3.70;;;;;;;;;;5109892;28;20068;-71
2023/05/18 15:02:37;;;;;;;5.50;3.45;;;;;;;;;;5069411;28;20073;-74
2023/05/18 15:05:04;;;;;;;8.90;3.92;;;;;;;;;;5060388;28;20044;-75
2023/05/18 15:07:30;;;;;;;5.35;3.30;;;;;;;;;;5078973;28;20483;-74
2023/05/18 15:09:57;;;;;;;11.55;3.80;;;;;;;;;;5075210;28;20287;-76
2023/05/18 15:12:25;;;;;;;8.43;3.60;;;;;;;;;;5076625;28;20215;-74
2023/05/18 15:14:52;;;;;;;8.88;3.78;;;;;;;;;;5079146;28;20044;-75
2023/05/18 15:17:19;;;;;;;4.57;4.10;;;;;;;;;;5086058;28;20051;-74
2023/05/18 15:19:48;;;;;;;12.85;3.95;;;;;;;;;;5082437;28;20521;-74
2023/05/18 15:22:14;;;;;;;7.30;3.75;;;;;;;;;;5084744;28;20035;-75
2023/05/18 15:24:40;;;;;;;7.03;4.00;;;;;;;;;;5082602;28;20041;-75
2023/05/18 15:27:07;;;;;;;4.05;3.65;;;;;;;;;;5078273;28;20064;-76
2023/05/18 15:29:33;;;;;;;12.52;6.07;;;;;;;;;;5099294;28;20055;-76
2023/05/18 15:31:59;;;;;;;6.03;5.20;;;;;;;;;;5085736;28;20123;-76
2023/05/18 15:34:25;;;;;;;8.90;4.60;;;;;;;;;;5082845;28;20408;-75
2023/05/18 15:36:52;;;;;;;5.40;4.53;;;;;;;;;;5081391;28;20051;-74
2023/05/18 15:39:18;;;;;;;12.18;4.50;;;;;;;;;;5085543;28;20606;-74
2023/05/18 15:41:44;;;;;;;11.43;4.00;;;;;;;;;;5081226;28;20507;-75
2023/05/18 15:44:09;;;;;;;12.98;4.05;;;;;;;;;;5074063;28;20036;-75
2023/05/18 15:46:35;;;;;;;7.55;4.85;;;;;;;;;;5080270;28;20048;-74
2023/05/18 15:49:02;;;;;;;6.03;5.30;;;;;;;;;;5081106;28;20044;-74
2023/05/18 15:51:28;;;;;;;11.95;6.40;;;;;;;;;;5083900;28;20081;-74
2023/05/18 15:53:54;;;;;;;10.13;7.65;;;;;;;;;;5084320;28;20044;-75
2023/05/18 15:56:20;;;;;;;12.55;7.00;;;;;;;;;;5090853;28;20117;-75
2023/05/18 15:58:46;;;;;;;10.73;5.03;;;;;;;;;;5092142;28;20526;-75
2023/05/18 16:01:12;;;;;;;5.18;4.47;;;;;;;;;;5091066;28;20057;-73
2023/05/18 16:03:38;;;;;;;7.78;3.97;;;;;;;;;;5093581;28;20127;-74
2023/05/18 16:06:04;;;;;;;5.97;3.83;;;;;;;;;;5096337;28;20052;-74
2023/05/18 16:08:30;;;;;;;5.57;3.95;;;;;;;;;;5076239;28;20040;-74
2023/05/18 16:10:56;;;;;;;6.45;4.22;;;;;;;;;;5107567;28;20052;-74
2023/05/18 16:13:24;;;;;;;12.77;6.10;;;;;;;;;;5114179;28;20130;-74
2023/05/18 16:15:50;;;;;;;15.27;6.53;;;;;;;;;;5082729;28;20055;-74
2023/05/18 16:18:16;;;;;;;7.03;4.25;;;;;;;;;;5114424;28;20445;-74
2023/05/18 16:20:42;;;;;;;16.02;4.50;;;;;;;;;;5095499;28;20407;-74
2023/05/18 16:23:08;;;;;;;15.15;4.25;;;;;;;;;;5113901;28;20483;-74
2023/05/18 16:25:34;;;;;;;31.75;4.50;;;;;;;;;;5113748;28;20143;-76
2023/05/18 16:28:00;;;;;;;18.33;4.80;;;;;;;;;;5113565;28;20036;-74
2023/05/18 16:30:25;;;;;;;17.50;4.68;;;;;;;;;;5113359;28;20044;-75
2023/05/18 16:32:51;;;;;;;18.08;5.07;;;;;;;;;;5095379;28;20043;-75
2023/05/18 16:35:17;;;;;;;21.45;5.50;;;;;;;;;;5095373;28;20491;-75
2023/05/18 16:37:43;;;;;;;18.30;5.88;;;;;;;;;;5095106;28;20073;-75
2023/05/18 16:40:09;;;;;;;16.25;5.28;;;;;;;;;;5113615;28;20067;-74
2023/05/18 16:42:35;;;;;;;23.13;5.18;;;;;;;;;;5095349;28;20039;-74
2023/05/18 16:45:01;;;;;;;11.80;4.25;;;;;;;;;;5094980;28;20495;-74
2023/05/18 16:47:27;;;;;;;21.52;5.78;;;;;;;;;;5095271;28;20039;-75
2023/05/18 16:49:53;;;;;;;12.30;5.10;;;;;;;;;;5113132;28;20059;-75
2023/05/18 16:52:20;;;;;;;24.30;4.80;;;;;;;;;;5078333;28;20036;-75
2023/05/18 16:54:46;;;;;;;11.70;4.72;;;;;;;;;;5112784;28;20100;-74
2023/05/18 16:57:12;;;;;;;8.48;4.45;;;;;;;;;;5085999;28;20047;-74
2023/05/18 16:59:38;;;;;;;20.48;5.05;;;;;;;;;;5084100;28;20079;-75
2023/05/18 17:02:04;;;;;;;14.70;4.28;;;;;;;;;;5083602;28;20047;-74
2023/05/18 17:04:30;;;;;;;23.20;4.68;;;;;;;;;;5083935;28;20080;-74
2023/05/18 17:06:56;;;;;;;11.05;4.28;;;;;;;;;;5084201;27;20036;-75
2023/05/18 17:09:22;;;;;;;8.18;4.63;;;;;;;;;;5087606;28;20055;-74
2023/05/18 17:11:48;;;;;;;16.33;4.40;;;;;;;;;;5079784;28;20040;-74
2023/05/18 17:14:14;;;;;;;16.10;4.63;;;;;;;;;;5093056;28;20538;-74
2023/05/18 17:16:40;;;;;;;13.10;4.65;;;;;;;;;;5077128;28;20040;-74
2023/05/18 17:19:06;;;;;;;17.15;4.82;;;;;;;;;;5094035;28;20049;-74
2023/05/18 17:21:32;;;;;;;10.50;4.22;;;;;;;;;;5090320;28;20027;-74
2023/05/18 17:23:58;;;;;;;10.70;4.35;;;;;;;;;;5068113;28;20625;-74
2023/05/18 17:26:24;;;;;;;13.18;3.85;;;;;;;;;;5082499;28;20507;-74
2023/05/18 17:28:57;;;;;;;6.93;3.93;;;;;;;;;;5084324;28;20114;-73
2023/05/18 17:31:34;;;;;;;7.50;3.38;;;;;;;;;;5104932;28;20986;-73
2023/05/18 17:34:03;;;;;;;11.20;3.92;;;;;;;;;;5068157;28;20074;-74
2023/05/18 17:36:37;;;;;;;8.65;4.40;;;;;;;;;;5092297;28;20452;-74
2023/05/18 17:39:09;;;;;;;9.52;5.25;;;;;;;;;;5091871;28;20107;-74
2023/05/18 17:41:39;;;;;;;14.15;5.45;;;;;;;;;;5076445;28;20040;-73
2023/05/18 17:44:06;;;;;;;11.57;4.53;;;;;;;;;;5080018;28;20138;-73
2023/05/18 17:46:36;;;;;;;9.52;4.55;;;;;;;;;;5105820;28;20032;-73
2023/05/18 17:49:04;;;;;;;12.43;4.53;;;;;;;;;;5105213;28;20059;-73
2023/05/18 17:51:41;;;;;;;12.93;5.05;;;;;;;;;;5094938;28;20075;-73
2023/05/18 17:54:12;;;;;;;9.52;4.60;;;;;;;;;;5111588;28;20067;-74
2023/05/18 17:56:45;;;;;;;10.20;4.95;;;;;;;;;;5094289;28;20096;-74
2023/05/18 17:59:16;;;;;;;15.40;5.35;;;;;;;;;;5091141;28;20116;-73
2023/05/18 18:01:43;;;;;;;13.90;5.38;;;;;;;;;;5093486;28;20035;-74
2023/05/18 18:04:23;;;;;;;21.90;4.72;;;;;;;;;;5112174;28;20076;-73
2023/05/18 18:06:54;;;;;;;;;;;;;;;;;;5092721;28;20040;-76
2023/05/18 18:09:29;;;;;;;9.68;4.90;;;;;;;;;;5085779;28;20361;-81
2023/05/18 18:12:11;;;;;;;7.85;4.93;;;;;;;;;;5102975;28;20130;-78
2023/05/18 18:14:37;;;;;;;12.88;4.57;;;;;;;;;;5075767;28;20044;-81
2023/05/18 18:17:08;;;;;;;6.85;4.35;;;;;;;;;;5097068;28;20043;-83